createdAt,value
2024-02-23T00:01:19.285Z,42.15
2024-02-23T00:03:21.250Z,48.10
2024-02-23T00:05:23.319Z,47.67
2024-02-23T00:07:25.289Z,50.20
2024-02-23T00:09:28.073Z,38.75
2024-02-23T00:11:30.449Z,47.20
2024-02-23T00:13:32.516Z,41.45
2024-02-23T00:17:36.394Z,42.63
2024-02-23T00:19:38.797Z,42.95
2024-02-23T00:21:41.398Z,42.22
2024-02-23T00:23:43.350Z,49.13
2024-02-23T00:25:45.311Z,46.63
2024-02-23T00:29:50.107Z,50.65
2024-02-23T00:31:52.112Z,46.22
2024-02-23T00:35:56.316Z,45.70
2024-02-23T00:37:58.311Z,42.28
2024-02-23T00:42:02.150Z,42.15
2024-02-23T00:44:04.696Z,44.83
2024-02-23T00:46:06.844Z,48.95
2024-02-23T00:50:11.952Z,47.72
2024-02-23T00:52:13.999Z,47.00
2024-02-23T00:56:17.917Z,46.80
2024-02-23T01:00:21.970Z,56.67
2024-02-23T01:02:24.042Z,48.42
2024-02-23T01:06:29.670Z,44.40
2024-02-23T01:08:32.918Z,50.47
2024-02-23T01:10:34.846Z,45.08
2024-02-23T01:12:37.333Z,44.55
2024-02-23T01:14:39.237Z,40.47
2024-02-23T01:16:41.169Z,46.97
2024-02-23T01:18:43.129Z,47.90
2024-02-23T01:20:45.173Z,45.45
2024-02-23T01:24:49.665Z,47.85
2024-02-23T01:28:53.455Z,46.63
2024-02-23T01:32:57.450Z,45.08
2024-02-23T01:37:01.279Z,42.10
2024-02-23T01:39:03.345Z,35.63
2024-02-23T01:43:07.620Z,46.05
2024-02-23T01:45:09.746Z,37.72
2024-02-23T01:51:17.897Z,38.00
2024-02-23T01:53:20.659Z,38.50
2024-02-23T01:55:23.631Z,39.63
2024-02-23T01:57:39.987Z,40.67
2024-02-23T01:59:48.126Z,34.03
2024-02-23T02:03:51.985Z,38.05
2024-02-23T02:05:55.193Z,39.42
2024-02-23T02:08:00.818Z,38.10
2024-02-23T02:10:05.111Z,45.00
2024-02-23T02:12:07.198Z,38.95
2024-02-23T02:14:09.310Z,40.65
2024-02-23T02:18:14.292Z,37.70
2024-02-23T02:22:22.014Z,39.28
2024-02-23T02:24:23.947Z,36.85
2024-02-23T02:26:25.961Z,37.92
2024-02-23T02:30:29.688Z,36.63
2024-02-23T02:32:35.847Z,34.03
2024-02-23T02:34:39.381Z,37.80
2024-02-23T02:36:41.401Z,37.33
2024-02-23T02:40:45.511Z,37.45
2024-02-23T02:42:47.437Z,35.65
2024-02-23T02:44:49.363Z,35.53
2024-02-23T02:46:51.584Z,35.97
2024-02-23T02:48:53.600Z,34.28
2024-02-23T02:52:57.811Z,44.08
2024-02-23T02:55:01.371Z,48.33
2024-02-23T02:57:03.436Z,34.22
2024-02-23T03:01:07.240Z,35.40
2024-02-23T03:03:09.227Z,37.25
2024-02-23T03:05:11.214Z,35.25
2024-02-23T03:07:13.384Z,61.35
2024-02-23T03:09:15.322Z,39.17
2024-02-23T03:11:17.301Z,40.35
2024-02-23T03:15:21.167Z,36.75
2024-02-23T03:17:23.109Z,37.50
2024-02-23T03:19:25.131Z,44.22
2024-02-23T03:21:27.118Z,36.53
2024-02-23T03:23:29.857Z,40.30
2024-02-23T03:25:32.039Z,41.60
2024-02-23T03:27:34.004Z,39.63
2024-02-23T03:29:36.037Z,36.50
2024-02-23T03:33:40.420Z,35.70
2024-02-23T03:35:42.476Z,41.35
2024-02-23T03:39:46.377Z,42.50
2024-02-23T03:41:48.342Z,38.22
2024-02-23T03:43:50.237Z,48.88
2024-02-23T03:45:52.188Z,48.15
2024-02-23T03:47:54.172Z,42.55
2024-02-23T03:51:58.017Z,35.88
2024-02-23T03:53:59.970Z,35.50
2024-02-23T03:56:01.978Z,37.85
2024-02-23T04:00:07.487Z,39.67
2024-02-23T04:02:10.103Z,36.08
2024-02-23T04:04:12.152Z,46.22
2024-02-23T04:08:15.922Z,38.20
2024-02-23T04:12:20.956Z,39.65
2024-02-23T04:14:22.868Z,43.17
2024-02-23T04:16:28.793Z,40.60
2024-02-23T04:18:30.857Z,44.88
2024-02-23T04:22:36.114Z,33.35
2024-02-23T04:24:40.362Z,37.25
2024-02-23T04:26:42.255Z,40.58
2024-02-23T04:28:44.400Z,34.38
2024-02-23T04:32:48.828Z,33.67
2024-02-23T04:34:50.889Z,40.33
2024-02-23T04:38:54.657Z,35.38
2024-02-23T04:40:57.771Z,41.55
2024-02-23T04:42:59.768Z,32.22
2024-02-23T04:45:01.738Z,38.42
2024-02-23T04:47:03.963Z,32.97
2024-02-23T04:49:05.945Z,36.58
2024-02-23T04:51:10.974Z,40.75
2024-02-23T04:53:13.089Z,35.40
2024-02-23T04:57:16.912Z,42.47
2024-02-23T04:59:19.002Z,39.15
2024-02-23T05:03:22.882Z,39.60
2024-02-23T05:05:24.945Z,42.28
2024-02-23T05:09:28.730Z,39.13
2024-02-23T05:11:30.769Z,45.90
2024-02-23T05:15:34.557Z,41.75
2024-02-23T05:17:36.583Z,39.70
2024-02-23T05:21:40.479Z,36.88
2024-02-23T05:23:42.699Z,45.70
2024-02-23T05:25:44.696Z,44.78
2024-02-23T05:27:46.607Z,41.60
2024-02-23T05:29:48.643Z,48.47
2024-02-23T05:33:53.457Z,42.80
2024-02-23T05:35:55.413Z,42.33
2024-02-23T05:37:57.559Z,40.20
2024-02-23T05:40:01.201Z,41.50
2024-02-23T05:42:03.278Z,55.75
2024-02-23T05:44:08.649Z,63.97
2024-02-23T05:46:10.686Z,47.30
2024-02-23T05:48:13.010Z,46.75
2024-02-23T05:50:15.367Z,42.47
2024-02-23T05:54:19.323Z,40.60
2024-02-23T05:56:21.413Z,36.58
2024-02-23T06:00:25.978Z,42.45
2024-02-23T06:02:28.073Z,34.83
2024-02-23T06:04:30.226Z,37.80
2024-02-23T06:08:35.108Z,36.13
2024-02-23T06:10:38.940Z,42.80
2024-02-23T06:12:40.893Z,49.65
2024-02-23T06:14:42.871Z,42.08
2024-02-23T06:16:45.191Z,37.67
2024-02-23T06:18:47.189Z,32.67
2024-02-23T06:20:50.707Z,32.58
2024-02-23T06:22:52.725Z,36.80
2024-02-23T06:24:54.717Z,35.15
2024-02-23T06:28:58.402Z,39.03
2024-02-23T06:31:01.609Z,42.45
2024-02-23T06:33:03.916Z,42.83
2024-02-23T06:35:07.633Z,38.10
2024-02-23T06:37:09.677Z,35.58
2024-02-23T06:39:12.025Z,36.53
2024-02-23T06:41:14.200Z,31.75
2024-02-23T06:43:16.267Z,31.98
2024-02-23T06:45:18.182Z,40.65
2024-02-23T06:47:20.170Z,34.00
2024-02-23T06:51:24.086Z,29.35
2024-02-23T06:53:26.151Z,55.35
2024-02-23T06:57:32.183Z,29.00
2024-02-23T06:59:34.243Z,30.70
2024-02-23T07:03:45.268Z,29.50
2024-02-23T07:05:48.599Z,29.70
2024-02-23T07:07:50.659Z,24.67
2024-02-23T07:09:53.275Z,31.60
2024-02-23T07:11:55.341Z,28.05
2024-02-23T07:16:00.429Z,33.80
2024-02-23T07:18:02.569Z,28.73
2024-02-23T07:22:09.512Z,29.85
2024-02-23T07:26:13.387Z,32.30
2024-02-23T07:28:19.493Z,27.83
2024-02-23T07:30:21.455Z,27.50
2024-02-23T07:32:23.447Z,30.63
2024-02-23T07:34:25.815Z,27.38
2024-02-23T07:36:28.719Z,26.67
2024-02-23T07:38:31.069Z,24.05
2024-02-23T07:40:33.380Z,35.42
2024-02-23T07:42:36.806Z,28.30
2024-02-23T07:44:38.846Z,25.75
2024-02-23T07:48:42.910Z,34.97
2024-02-23T07:50:44.946Z,25.02
2024-02-23T07:52:47.355Z,32.20
2024-02-23T07:54:49.689Z,29.63
2024-02-23T07:56:51.654Z,25.98
2024-02-23T07:58:53.645Z,28.52
2024-02-23T08:03:01.475Z,30.50
2024-02-23T08:05:05.174Z,26.50
2024-02-23T08:07:07.592Z,24.80
2024-02-23T08:09:10.602Z,24.17
2024-02-23T08:11:12.569Z,28.90
2024-02-23T08:13:14.544Z,28.20
2024-02-23T08:15:16.611Z,23.30
2024-02-23T08:19:20.393Z,26.75
2024-02-23T08:21:22.355Z,23.77
2024-02-23T08:23:25.508Z,25.52
2024-02-23T08:25:29.968Z,28.63
2024-02-23T08:27:32.030Z,23.73
2024-02-23T08:31:38.375Z,27.33
2024-02-23T08:33:41.505Z,25.20
2024-02-23T08:37:46.243Z,33.53
2024-02-23T08:39:48.249Z,33.22
2024-02-23T08:41:52.714Z,26.95
2024-02-23T08:43:56.692Z,35.80
2024-02-23T08:46:02.093Z,28.17
2024-02-23T08:48:08.181Z,28.25
2024-02-23T08:50:10.741Z,29.63
2024-02-23T08:52:12.811Z,33.95
2024-02-23T08:54:14.738Z,27.08
2024-02-23T08:56:17.493Z,27.63
2024-02-23T08:58:19.490Z,32.25
2024-02-23T09:00:21.691Z,29.13
2024-02-23T09:04:25.473Z,30.60
2024-02-23T09:06:27.614Z,25.60
2024-02-23T09:08:29.891Z,24.83
2024-02-23T09:12:33.765Z,22.33
2024-02-23T09:14:38.761Z,27.95
2024-02-23T09:16:40.757Z,19.77
2024-02-23T09:18:42.909Z,21.27
2024-02-23T09:20:45.107Z,31.85
2024-02-23T09:24:48.935Z,20.33
2024-02-23T09:26:50.949Z,24.98
2024-02-23T09:30:57.772Z,23.33
2024-02-23T09:33:00.826Z,22.55
2024-02-23T09:35:04.651Z,25.67
2024-02-23T09:37:06.595Z,24.02
2024-02-23T09:39:08.593Z,23.35
2024-02-23T09:41:18.919Z,25.02
2024-02-23T09:43:27.188Z,26.00
2024-02-23T09:45:30.231Z,24.30
2024-02-23T09:47:33.058Z,20.55
2024-02-23T09:49:42.244Z,24.80
2024-02-23T09:51:44.958Z,26.77
2024-02-23T09:53:49.314Z,21.75
2024-02-23T09:55:53.002Z,21.25
2024-02-23T09:57:59.260Z,19.30
2024-02-23T10:00:02.312Z,20.10
2024-02-23T10:02:13.025Z,27.83
2024-02-23T10:04:16.026Z,25.83
2024-02-23T10:06:18.101Z,17.00
2024-02-23T10:10:40.418Z,27.02
2024-02-23T10:12:42.450Z,20.40
2024-02-23T10:14:44.494Z,16.98
2024-02-23T10:16:46.457Z,27.50
2024-02-23T10:18:49.905Z,27.27
2024-02-23T10:20:53.739Z,15.18
2024-02-23T10:22:55.957Z,20.77
2024-02-23T10:24:59.012Z,16.70
2024-02-23T10:27:03.686Z,23.58
2024-02-23T10:29:05.758Z,23.30
2024-02-23T10:31:10.663Z,19.48
2024-02-23T10:33:15.803Z,15.60
2024-02-23T10:35:19.020Z,17.90
2024-02-23T10:37:23.894Z,16.30
2024-02-23T10:39:27.231Z,14.00
2024-02-23T10:41:32.970Z,20.95
2024-02-23T10:43:41.244Z,17.42
2024-02-23T10:45:44.591Z,19.10
2024-02-23T10:47:47.552Z,20.35
2024-02-23T10:49:50.014Z,22.80
2024-02-23T10:51:53.269Z,15.27
2024-02-23T10:53:56.412Z,16.25
2024-02-23T10:56:00.872Z,17.05
2024-02-23T10:58:04.549Z,18.05
2024-02-23T11:00:11.109Z,15.93
2024-02-23T11:02:17.440Z,13.07
2024-02-23T11:04:23.913Z,27.77
2024-02-23T11:06:29.980Z,34.83
2024-02-23T11:08:34.349Z,22.33
2024-02-23T11:11:12.292Z,15.38
2024-02-23T11:13:16.235Z,14.63
2024-02-23T11:15:33.246Z,20.70
2024-02-23T11:17:38.566Z,16.92
2024-02-23T11:19:41.637Z,17.65
2024-02-23T11:21:43.576Z,15.93
2024-02-23T11:23:52.433Z,15.05
2024-02-23T11:26:24.206Z,16.52
2024-02-23T11:28:26.590Z,11.57
2024-02-23T11:30:28.607Z,20.45
2024-02-23T11:32:44.596Z,19.50
2024-02-23T11:34:58.074Z,13.52
2024-02-23T11:37:12.182Z,17.50
2024-02-23T11:39:15.215Z,18.83
2024-02-23T11:41:18.143Z,19.38
2024-02-23T11:43:22.293Z,11.77
2024-02-23T11:45:26.314Z,20.13
2024-02-23T11:47:28.444Z,14.80
2024-02-23T11:53:35.301Z,11.00
2024-02-23T11:55:37.438Z,16.42
2024-02-23T11:59:53.236Z,17.13
2024-02-23T12:01:55.668Z,16.63
2024-02-23T12:03:57.635Z,19.30
2024-02-23T12:06:00.737Z,16.25
2024-02-23T12:08:03.151Z,13.27
2024-02-23T12:10:07.325Z,14.20
2024-02-23T12:12:10.378Z,17.52
2024-02-23T12:14:12.765Z,19.70
2024-02-23T12:16:15.945Z,14.55
2024-02-23T12:18:17.942Z,14.27
2024-02-23T12:20:20.027Z,12.30
2024-02-23T12:24:29.392Z,20.05
2024-02-23T12:26:32.275Z,12.13
2024-02-23T12:28:34.582Z,14.68
2024-02-23T12:30:36.532Z,13.10
2024-02-23T12:34:40.558Z,11.88
2024-02-23T12:36:42.675Z,10.70
2024-02-23T12:40:46.632Z,14.55
2024-02-23T12:42:49.894Z,10.85
2024-02-23T12:44:51.827Z,14.68
2024-02-23T12:46:53.768Z,15.70
2024-02-23T12:48:55.705Z,14.10
2024-02-23T12:50:57.739Z,14.90
2024-02-23T12:53:00.616Z,14.88
2024-02-23T12:55:02.550Z,19.50
2024-02-23T12:57:04.518Z,11.32
2024-02-23T12:59:06.548Z,13.50
2024-02-23T13:03:10.964Z,19.15
2024-02-23T13:05:12.997Z,19.67
2024-02-23T13:09:16.789Z,9.53
2024-02-23T13:11:18.771Z,13.15
2024-02-23T13:15:26.893Z,14.35
2024-02-23T13:17:29.210Z,11.63
2024-02-23T13:21:33.846Z,18.90
2024-02-23T13:23:37.437Z,15.95
2024-02-23T13:25:40.802Z,14.82
2024-02-23T13:27:42.754Z,17.30
2024-02-23T13:29:44.727Z,16.10
2024-02-23T13:31:46.734Z,21.75
2024-02-23T13:33:48.910Z,15.60
2024-02-23T13:35:51.420Z,14.60
2024-02-23T13:37:53.579Z,15.38
2024-02-23T13:41:57.390Z,11.45
2024-02-23T13:43:59.330Z,14.27
2024-02-23T13:46:01.396Z,16.88
2024-02-23T13:50:07.433Z,12.23
2024-02-23T13:52:09.710Z,14.55
2024-02-23T13:54:12.799Z,21.83
2024-02-23T13:56:14.927Z,20.17
2024-02-23T14:00:20.462Z,12.07
2024-02-23T14:02:28.299Z,18.33
2024-02-23T14:04:30.396Z,12.23
2024-02-23T14:06:32.359Z,14.98
2024-02-23T14:08:38.710Z,29.00
2024-02-23T14:10:41.906Z,14.00
2024-02-23T14:12:44.185Z,15.35
2024-02-23T14:14:46.200Z,15.82
2024-02-23T14:16:48.302Z,13.27
2024-02-23T14:20:53.763Z,12.23
2024-02-23T14:22:55.881Z,10.02
2024-02-23T14:26:59.783Z,9.38
2024-02-23T14:29:03.217Z,19.95
2024-02-23T14:31:05.387Z,19.00
2024-02-23T14:35:10.661Z,11.68
2024-02-23T14:37:13.011Z,16.20
2024-02-23T14:39:15.040Z,15.63
2024-02-23T14:41:17.043Z,9.82
2024-02-23T14:45:23.192Z,17.60
2024-02-23T14:47:32.118Z,12.18
2024-02-23T14:51:40.792Z,12.02
2024-02-23T14:53:42.923Z,13.82
2024-02-23T14:57:46.971Z,16.67
2024-02-23T15:01:53.281Z,15.25
2024-02-23T15:03:55.337Z,15.95
2024-02-23T15:07:59.448Z,13.38
2024-02-23T15:12:08.611Z,13.30
2024-02-23T15:14:10.653Z,16.83
2024-02-23T15:16:12.695Z,17.25
2024-02-23T15:20:16.823Z,20.88
2024-02-23T15:22:20.278Z,16.63
2024-02-23T15:24:25.202Z,37.40
2024-02-23T15:26:27.156Z,14.93
2024-02-23T15:28:29.207Z,19.08
2024-02-23T15:30:31.287Z,13.27
2024-02-23T15:32:33.862Z,12.65
2024-02-23T15:34:36.061Z,21.05
2024-02-23T15:36:38.282Z,20.00
2024-02-23T15:40:42.245Z,14.70
2024-02-23T15:42:44.255Z,13.80
2024-02-23T15:44:46.486Z,16.60
2024-02-23T15:46:48.541Z,17.60
2024-02-23T15:48:50.574Z,20.58
2024-02-23T15:52:59.712Z,18.52
2024-02-23T15:55:01.831Z,24.95
2024-02-23T15:57:04.678Z,19.05
2024-02-23T15:59:09.434Z,26.25
2024-02-23T16:01:11.710Z,23.80
2024-02-23T16:03:13.736Z,18.50
2024-02-23T16:05:16.634Z,19.83
2024-02-23T16:07:18.836Z,25.42
2024-02-23T16:11:23.467Z,24.95
2024-02-23T16:13:26.526Z,15.60
2024-02-23T16:15:29.247Z,20.08
2024-02-23T16:17:31.851Z,30.17
2024-02-23T16:19:33.842Z,24.25
2024-02-23T16:21:38.731Z,19.52
2024-02-23T16:23:40.706Z,20.33
2024-02-23T16:25:42.717Z,15.70
2024-02-23T16:27:45.047Z,16.30
2024-02-23T16:29:47.146Z,19.02
2024-02-23T16:33:51.387Z,12.93
2024-02-23T16:36:03.060Z,14.43
2024-02-23T16:38:05.150Z,19.20
2024-02-23T16:40:08.054Z,12.48
2024-02-23T16:42:10.145Z,22.08
2024-02-23T16:46:16.344Z,12.05
2024-02-23T16:50:24.049Z,14.82
2024-02-23T16:52:26.262Z,13.68
2024-02-23T16:56:30.191Z,18.08
2024-02-23T16:58:36.977Z,12.73
2024-02-23T17:00:39.288Z,11.20
2024-02-23T17:02:41.544Z,17.73
2024-02-23T17:04:45.801Z,26.45
2024-02-23T17:06:47.873Z,13.05
2024-02-23T17:10:56.897Z,10.27
2024-02-23T17:12:59.242Z,19.00
2024-02-23T17:15:04.089Z,25.98
2024-02-23T17:17:06.017Z,8.85
2024-02-23T17:19:12.611Z,12.52
2024-02-23T17:21:17.198Z,11.57
2024-02-23T17:23:19.260Z,14.85
2024-02-23T17:27:23.300Z,12.20
2024-02-23T17:29:29.047Z,13.98
2024-02-23T17:31:31.294Z,13.02
2024-02-23T17:33:36.232Z,11.30
2024-02-23T17:35:40.295Z,10.85
2024-02-23T17:37:42.453Z,13.85
2024-02-23T17:41:50.646Z,18.02
2024-02-23T17:43:52.660Z,14.15
2024-02-23T17:45:55.054Z,16.20
2024-02-23T17:48:01.181Z,13.80
2024-02-23T17:50:04.382Z,17.20
2024-02-23T17:52:06.796Z,13.30
2024-02-23T17:54:09.224Z,17.98
2024-02-23T17:56:11.498Z,17.10
2024-02-23T17:58:20.078Z,17.85
2024-02-23T18:00:23.035Z,29.13
2024-02-23T18:04:28.794Z,18.35
2024-02-23T18:06:30.811Z,16.67
2024-02-23T18:08:33.369Z,14.57
2024-02-23T18:10:35.397Z,17.17
2024-02-23T18:12:37.355Z,14.45
2024-02-23T18:14:39.385Z,20.70
2024-02-23T18:18:43.321Z,15.02
2024-02-23T18:22:47.272Z,20.95
2024-02-23T18:26:51.086Z,18.52
2024-02-23T18:30:55.019Z,17.33
2024-02-23T18:32:57.251Z,19.88
2024-02-23T18:34:59.366Z,17.73
2024-02-23T18:39:03.825Z,23.02
2024-02-23T18:41:06.549Z,22.40
2024-02-23T18:43:08.548Z,26.25
2024-02-23T18:45:10.577Z,22.40
2024-02-23T18:47:12.633Z,20.77
2024-02-23T18:51:20.572Z,24.15
2024-02-23T18:53:23.844Z,23.98
2024-02-23T18:55:29.571Z,25.25
2024-02-23T18:57:33.232Z,26.02
2024-02-23T18:59:35.244Z,23.52
2024-02-23T19:03:39.204Z,22.40
2024-02-23T19:05:41.508Z,31.48
2024-02-23T19:07:43.527Z,26.95
2024-02-23T19:09:45.460Z,22.50
2024-02-23T19:11:47.563Z,25.58
2024-02-23T19:15:51.827Z,30.73
2024-02-23T19:17:53.966Z,30.30
2024-02-23T19:19:55.980Z,28.90
2024-02-23T19:21:57.985Z,42.42
2024-02-23T19:23:59.957Z,27.17
2024-02-23T19:26:01.949Z,33.63
2024-02-23T19:28:04.294Z,30.23
2024-02-23T19:30:09.401Z,29.10
2024-02-23T19:32:11.506Z,31.90
2024-02-23T19:36:16.213Z,31.48
2024-02-23T19:38:18.235Z,30.40
2024-02-23T19:42:25.126Z,35.05
2024-02-23T19:44:28.124Z,33.58
2024-02-23T19:46:30.057Z,31.45
2024-02-23T19:48:32.064Z,33.13
2024-02-23T19:52:36.095Z,36.05
2024-02-23T19:54:38.264Z,33.60
2024-02-23T19:58:45.089Z,36.88
2024-02-23T20:00:47.143Z,38.13
2024-02-23T20:02:49.225Z,31.73
2024-02-23T20:06:56.676Z,36.95
2024-02-23T20:08:58.668Z,34.40
2024-02-23T20:11:01.522Z,37.97
2024-02-23T20:13:03.721Z,35.22
2024-02-23T20:17:26.303Z,37.70
2024-02-23T20:19:29.272Z,35.13
2024-02-23T20:21:34.397Z,41.45
2024-02-23T20:23:36.464Z,40.10
2024-02-23T20:27:43.821Z,37.20
2024-02-23T20:29:47.074Z,41.10
2024-02-23T20:33:51.313Z,37.75
2024-02-23T20:35:53.372Z,39.13
2024-02-23T20:37:59.472Z,39.05
2024-02-23T20:40:06.706Z,44.13
2024-02-23T20:42:10.291Z,33.17
2024-02-23T20:44:12.380Z,38.83
2024-02-23T20:46:14.369Z,36.03
2024-02-23T20:48:16.439Z,33.50
2024-02-23T20:52:21.861Z,41.55
2024-02-23T20:54:24.150Z,37.35
2024-02-23T20:56:28.518Z,35.42
2024-02-23T20:58:30.944Z,38.75
2024-02-23T21:00:34.011Z,40.75
2024-02-23T21:02:37.993Z,43.05
2024-02-23T21:04:40.698Z,40.35
2024-02-23T21:06:42.784Z,36.55
2024-02-23T21:10:46.721Z,35.95
2024-02-23T21:12:48.641Z,36.67
2024-02-23T21:14:52.064Z,36.65
2024-02-23T21:16:54.059Z,39.85
2024-02-23T21:18:56.096Z,40.15
2024-02-23T21:23:01.269Z,35.90
2024-02-23T21:27:05.886Z,34.20
2024-02-23T21:29:07.848Z,37.47
2024-02-23T21:33:12.395Z,37.60
2024-02-23T21:35:14.520Z,37.63
2024-02-23T21:39:21.038Z,35.63
2024-02-23T21:41:23.145Z,37.80
2024-02-23T21:45:28.828Z,39.75
2024-02-23T21:47:30.968Z,40.40
2024-02-23T21:49:34.524Z,40.30
2024-02-23T21:51:40.484Z,37.17
2024-02-23T21:53:42.516Z,35.45
2024-02-23T21:57:46.528Z,42.55
2024-02-23T21:59:50.360Z,41.33
2024-02-23T22:01:52.439Z,38.13
2024-02-23T22:05:57.190Z,35.47
2024-02-23T22:07:59.270Z,38.35
2024-02-23T22:12:03.405Z,35.92
2024-02-23T22:14:05.460Z,38.08
2024-02-23T22:16:07.645Z,34.45
2024-02-23T22:18:09.694Z,38.30
2024-02-23T22:22:13.756Z,35.20
2024-02-23T22:26:17.578Z,38.75
2024-02-23T22:28:19.647Z,35.72
2024-02-23T22:30:21.576Z,37.22
2024-02-23T22:32:24.956Z,34.78
2024-02-23T22:34:28.806Z,35.33
2024-02-23T22:36:31.109Z,35.58
2024-02-23T22:38:33.251Z,36.30
2024-02-23T22:40:37.051Z,43.75
2024-02-23T22:42:39.128Z,39.88
2024-02-23T22:46:43.657Z,39.50
2024-02-23T22:48:45.672Z,38.08
2024-02-23T22:52:49.757Z,35.17
2024-02-23T22:54:51.748Z,46.85
2024-02-23T22:56:53.797Z,39.42
2024-02-23T23:00:57.781Z,35.15
2024-02-23T23:02:59.780Z,35.80
2024-02-23T23:05:01.959Z,34.22
2024-02-23T23:07:05.259Z,38.35
2024-02-23T23:09:10.713Z,33.30
2024-02-23T23:11:13.034Z,35.20
2024-02-23T23:13:15.130Z,34.55
2024-02-23T23:15:17.087Z,34.67
2024-02-23T23:17:20.686Z,38.20
2024-02-23T23:19:23.680Z,32.22
2024-02-23T23:21:25.940Z,34.08
2024-02-23T23:23:27.937Z,37.95
2024-02-23T23:25:30.005Z,40.15
2024-02-23T23:29:34.067Z,39.22
2024-02-23T23:31:36.138Z,37.25
2024-02-23T23:33:38.123Z,37.55
2024-02-23T23:37:42.103Z,33.67
2024-02-23T23:41:47.106Z,32.40
2024-02-23T23:43:49.233Z,35.38
2024-02-23T23:47:53.105Z,31.67
2024-02-23T23:52:03.790Z,34.25
2024-02-23T23:54:07.109Z,32.90
2024-02-23T23:58:12.465Z,33.60
